Hovedside
METAR-TAF:

METAR-TAF

Lufthavner :

Funafuti, Tuvalu

Funafuti internasjonale lufthavn

breddegrad: 08-31S, lengdegrad: 179-13E, høyde over havet: 1 m

Gjeldene værobservasjon

Denne rapporten ble laget for 1 time og 1 minutter siden, klokken 06:00 UTC
Vind 6 kt fra Øst
Temperatur 30°C
Luftfuktighet 75%
Trykk 1007 hPa
Sikt 10 km eller mer
Spredte skyer i en høyde av 1800 ft, Tårnskyer (cumulus).
Brutte skyer i en høyde av 31000 ft

METAR: NGFU 250600Z 09006KT 9999 SCT018TCU BKN310 30/25 Q1007

Tid: 19:01 (07:01 UTC)

Varsel

Denne rapporten ble laget for 1 time og 52 minutter siden, klokken 05:09 UTC
Varsel gyldig fra 25. klokken 06 UTC til 26. klokken 06 UTC
Vind 8 kt fra Øst
Sikt 10 km eller mer
Spredte skyer i en høyde av 1700 ft
Spredte skyer i en høyde av 4500 ft

TAF: NGFU 250509Z 2506/2606 09008KT 9999 SCT017 SCT045

Værobservasjoner og værvarsel for over 4000 flyplasser (METAR- og TAF-rapporter).

Tilgjengelige stasjoner er representert av de røde og gule prikkene på kartet.

Hold musepekeren over prikken for å se navnet på stasjonen.

Klikk så for å se værobservasjoner og -varsler.

For å forandre kartet kan du klikke på den grønne knappen med svart kryss for å zoome inn, på den grønne knappen med strek for å zoome ut, eller på de grønne pilene for å se tilstøtende kart.


METAR-TAF: